sensor_id;sensor_type;location;lat;lon;timestamp;pressure;altitude;pressure_sealevel;temperature;humidity
61678;BME280;47575;52.054;4.334;2022-12-18T00:02:11;102916.09;;;-2.74;100.00
61678;BME280;47575;52.054;4.334;2022-12-18T00:04:38;102910.50;;;-2.67;100.00
61678;BME280;47575;52.054;4.334;2022-12-18T00:07:06;102921.38;;;-2.71;100.00
61678;BME280;47575;52.054;4.334;2022-12-18T00:09:36;102923.88;;;-2.73;100.00
61678;BME280;47575;52.054;4.334;2022-12-18T00:12:03;102925.16;;;-2.65;100.00
61678;BME280;47575;52.054;4.334;2022-12-18T00:14:30;102927.19;;;-2.59;100.00
61678;BME280;47575;52.054;4.334;2022-12-18T00:16:57;102929.84;;;-2.58;100.00
61678;BME280;47575;52.054;4.334;2022-12-18T00:19:26;102924.72;;;-2.58;100.00
61678;BME280;47575;52.054;4.334;2022-12-18T00:21:54;102927.56;;;-2.68;100.00
61678;BME280;47575;52.054;4.334;2022-12-18T00:24:22;102925.78;;;-2.69;100.00
61678;BME280;47575;52.054;4.334;2022-12-18T00:26:49;102926.84;;;-2.65;100.00
61678;BME280;47575;52.054;4.334;2022-12-18T00:29:16;102924.47;;;-2.77;100.00
61678;BME280;47575;52.054;4.334;2022-12-18T00:31:43;102931.63;;;-2.71;100.00
61678;BME280;47575;52.054;4.334;2022-12-18T00:34:11;102927.66;;;-2.66;100.00
61678;BME280;47575;52.054;4.334;2022-12-18T00:36:39;102920.31;;;-2.60;100.00
61678;BME280;47575;52.054;4.334;2022-12-18T00:39:07;102925.44;;;-2.60;100.00
61678;BME280;47575;52.054;4.334;2022-12-18T00:41:35;102937.28;;;-2.46;100.00
61678;BME280;47575;52.054;4.334;2022-12-18T00:44:19;102941.25;;;-2.53;100.00
61678;BME280;47575;52.054;4.334;2022-12-18T00:46:47;102942.56;;;-2.59;100.00
61678;BME280;47575;52.054;4.334;2022-12-18T00:49:15;102940.00;;;-2.59;100.00
61678;BME280;47575;52.054;4.334;2022-12-18T00:51:42;102942.22;;;-2.65;100.00
61678;BME280;47575;52.054;4.334;2022-12-18T00:54:09;102950.22;;;-2.75;100.00
61678;BME280;47575;52.054;4.334;2022-12-18T00:56:38;102947.91;;;-2.71;100.00
61678;BME280;47575;52.054;4.334;2022-12-18T00:59:05;102943.19;;;-2.63;100.00
61678;BME280;47575;52.054;4.334;2022-12-18T01:01:32;102948.97;;;-2.67;100.00
61678;BME280;47575;52.054;4.334;2022-12-18T01:04:00;102952.13;;;-2.71;100.00
61678;BME280;47575;52.054;4.334;2022-12-18T01:06:27;102938.75;;;-2.82;100.00
61678;BME280;47575;52.054;4.334;2022-12-18T01:08:54;102944.03;;;-2.79;100.00
61678;BME280;47575;52.054;4.334;2022-12-18T01:11:21;102951.78;;;-2.78;100.00
61678;BME280;47575;52.054;4.334;2022-12-18T01:13:50;102950.31;;;-2.74;100.00
61678;BME280;47575;52.054;4.334;2022-12-18T01:16:17;102951.25;;;-2.72;100.00
61678;BME280;47575;52.054;4.334;2022-12-18T01:18:44;102949.66;;;-2.70;100.00
61678;BME280;47575;52.054;4.334;2022-12-18T01:21:12;102962.41;;;-2.86;100.00
61678;BME280;47575;52.054;4.334;2022-12-18T01:23:40;102945.72;;;-2.94;100.00
61678;BME280;47575;52.054;4.334;2022-12-18T01:26:07;102939.44;;;-2.99;100.00
61678;BME280;47575;52.054;4.334;2022-12-18T01:28:35;102944.13;;;-3.07;100.00
61678;BME280;47575;52.054;4.334;2022-12-18T01:31:13;102946.81;;;-3.20;100.00
61678;BME280;47575;52.054;4.334;2022-12-18T01:33:41;102952.38;;;-3.13;100.00
61678;BME280;47575;52.054;4.334;2022-12-18T01:36:08;102949.09;;;-3.25;100.00
61678;BME280;47575;52.054;4.334;2022-12-18T01:38:40;102955.63;;;-3.00;100.00
61678;BME280;47575;52.054;4.334;2022-12-18T01:41:07;102958.19;;;-3.00;100.00
61678;BME280;47575;52.054;4.334;2022-12-18T01:43:51;102968.94;;;-2.91;100.00
61678;BME280;47575;52.054;4.334;2022-12-18T01:46:21;102971.19;;;-2.97;100.00
61678;BME280;47575;52.054;4.334;2022-12-18T01:48:51;102973.38;;;-3.03;100.00
61678;BME280;47575;52.054;4.334;2022-12-18T01:51:20;102984.16;;;-2.94;100.00
61678;BME280;47575;52.054;4.334;2022-12-18T01:53:47;102986.19;;;-3.03;100.00
61678;BME280;47575;52.054;4.334;2022-12-18T01:56:15;102985.91;;;-3.08;100.00
61678;BME280;47575;52.054;4.334;2022-12-18T01:58:52;102989.34;;;-3.08;100.00
61678;BME280;47575;52.054;4.334;2022-12-18T02:01:23;102996.59;;;-3.15;100.00
61678;BME280;47575;52.054;4.334;2022-12-18T02:03:51;102991.53;;;-3.28;100.00
61678;BME280;47575;52.054;4.334;2022-12-18T02:06:19;102983.63;;;-3.18;100.00
61678;BME280;47575;52.054;4.334;2022-12-18T02:08:56;102983.00;;;-3.14;100.00
61678;BME280;47575;52.054;4.334;2022-12-18T02:11:29;102982.31;;;-3.26;100.00
61678;BME280;47575;52.054;4.334;2022-12-18T02:14:01;102993.34;;;-3.27;100.00
61678;BME280;47575;52.054;4.334;2022-12-18T02:16:34;102992.09;;;-3.19;100.00
61678;BME280;47575;52.054;4.334;2022-12-18T02:19:06;102985.91;;;-3.08;100.00
61678;BME280;47575;52.054;4.334;2022-12-18T02:21:40;102995.91;;;-3.13;100.00
61678;BME280;47575;52.054;4.334;2022-12-18T02:24:16;102993.44;;;-3.11;100.00
61678;BME280;47575;52.054;4.334;2022-12-18T02:26:46;102989.56;;;-3.04;100.00
61678;BME280;47575;52.054;4.334;2022-12-18T02:29:18;102996.25;;;-3.07;100.00
61678;BME280;47575;52.054;4.334;2022-12-18T02:31:49;102995.28;;;-3.09;100.00
61678;BME280;47575;52.054;4.334;2022-12-18T02:34:18;102982.91;;;-3.01;100.00
61678;BME280;47575;52.054;4.334;2022-12-18T02:36:46;102985.47;;;-3.01;100.00
61678;BME280;47575;52.054;4.334;2022-12-18T02:39:15;102978.06;;;-2.96;100.00
61678;BME280;47575;52.054;4.334;2022-12-18T02:41:57;102971.78;;;-3.01;100.00
61678;BME280;47575;52.054;4.334;2022-12-18T02:44:28;102963.13;;;-3.18;100.00
61678;BME280;47575;52.054;4.334;2022-12-18T02:46:55;102965.69;;;-3.18;100.00
61678;BME280;47575;52.054;4.334;2022-12-18T02:49:25;102958.25;;;-2.99;100.00
61678;BME280;47575;52.054;4.334;2022-12-18T02:51:59;102953.13;;;-2.99;100.00
61678;BME280;47575;52.054;4.334;2022-12-18T02:54:35;102948.13;;;-3.12;100.00
61678;BME280;47575;52.054;4.334;2022-12-18T02:57:07;102948.22;;;-3.25;100.00
61678;BME280;47575;52.054;4.334;2022-12-18T02:59:38;102942.44;;;-3.36;100.00
61678;BME280;47575;52.054;4.334;2022-12-18T03:02:09;102938.84;;;-3.25;100.00
61678;BME280;47575;52.054;4.334;2022-12-18T03:04:40;102940.97;;;-3.32;100.00
61678;BME280;47575;52.054;4.334;2022-12-18T03:07:11;102931.75;;;-3.29;100.00
61678;BME280;47575;52.054;4.334;2022-12-18T03:09:43;102928.69;;;-3.38;100.00
61678;BME280;47575;52.054;4.334;2022-12-18T03:12:15;102930.97;;;-3.43;100.00
61678;BME280;47575;52.054;4.334;2022-12-18T03:14:50;102923.75;;;-3.50;100.00
61678;BME280;47575;52.054;4.334;2022-12-18T03:17:19;102927.88;;;-3.52;100.00
61678;BME280;47575;52.054;4.334;2022-12-18T03:19:50;102931.16;;;-3.25;100.00
61678;BME280;47575;52.054;4.334;2022-12-18T03:22:19;102916.69;;;-3.39;100.00
61678;BME280;47575;52.054;4.334;2022-12-18T03:24:51;102930.19;;;-3.27;100.00
61678;BME280;47575;52.054;4.334;2022-12-18T03:27:21;102928.88;;;-3.35;100.00
61678;BME280;47575;52.054;4.334;2022-12-18T03:29:53;102926.19;;;-3.37;100.00
61678;BME280;47575;52.054;4.334;2022-12-18T03:32:28;102925.97;;;-3.41;100.00
61678;BME280;47575;52.054;4.334;2022-12-18T03:35:00;102916.84;;;-3.51;100.00
61678;BME280;47575;52.054;4.334;2022-12-18T03:37:32;102919.06;;;-3.42;100.00
61678;BME280;47575;52.054;4.334;2022-12-18T03:39:59;102924.44;;;-3.52;100.00
61678;BME280;47575;52.054;4.334;2022-12-18T03:42:29;102925.41;;;-3.36;100.00
61678;BME280;47575;52.054;4.334;2022-12-18T03:45:07;102917.72;;;-3.36;100.00
61678;BME280;47575;52.054;4.334;2022-12-18T03:47:38;102920.91;;;-3.40;100.00
61678;BME280;47575;52.054;4.334;2022-12-18T03:50:09;102922.41;;;-3.43;100.00
61678;BME280;47575;52.054;4.334;2022-12-18T03:52:45;102927.06;;;-3.51;100.00
61678;BME280;47575;52.054;4.334;2022-12-18T03:55:15;102932.22;;;-3.36;100.00
61678;BME280;47575;52.054;4.334;2022-12-18T03:57:47;102926.31;;;-3.50;100.00
61678;BME280;47575;52.054;4.334;2022-12-18T04:00:15;102929.41;;;-3.41;100.00
61678;BME280;47575;52.054;4.334;2022-12-18T04:03:03;102932.81;;;-3.55;100.00
61678;BME280;47575;52.054;4.334;2022-12-18T04:05:39;102930.69;;;-3.62;100.00
61678;BME280;47575;52.054;4.334;2022-12-18T04:08:09;102914.50;;;-3.76;100.00
61678;BME280;47575;52.054;4.334;2022-12-18T04:10:40;102921.44;;;-3.88;100.00
61678;BME280;47575;52.054;4.334;2022-12-18T04:13:08;102922.44;;;-3.86;100.00
61678;BME280;47575;52.054;4.334;2022-12-18T04:15:36;102925.47;;;-3.78;100.00
61678;BME280;47575;52.054;4.334;2022-12-18T04:18:08;102926.59;;;-3.73;100.00
61678;BME280;47575;52.054;4.334;2022-12-18T04:20:39;102928.28;;;-3.74;100.00
61678;BME280;47575;52.054;4.334;2022-12-18T04:23:07;102928.09;;;-3.77;100.00
61678;BME280;47575;52.054;4.334;2022-12-18T04:25:34;102925.97;;;-3.84;100.00
61678;BME280;47575;52.054;4.334;2022-12-18T04:28:09;102931.47;;;-3.78;100.00
61678;BME280;47575;52.054;4.334;2022-12-18T04:30:38;102924.34;;;-3.97;100.00
61678;BME280;47575;52.054;4.334;2022-12-18T04:33:07;102926.91;;;-3.97;100.00
61678;BME280;47575;52.054;4.334;2022-12-18T04:35:34;102925.47;;;-4.06;100.00
61678;BME280;47575;52.054;4.334;2022-12-18T04:38:01;102919.06;;;-4.00;100.00
61678;BME280;47575;52.054;4.334;2022-12-18T04:40:28;102924.44;;;-3.95;100.00
61678;BME280;47575;52.054;4.334;2022-12-18T04:42:56;102932.72;;;-3.99;100.00
61678;BME280;47575;52.054;4.334;2022-12-18T04:45:24;102931.88;;;-3.85;100.00
61678;BME280;47575;52.054;4.334;2022-12-18T04:47:51;102934.69;;;-3.80;100.00
61678;BME280;47575;52.054;4.334;2022-12-18T04:50:18;102924.63;;;-3.92;100.00
61678;BME280;47575;52.054;4.334;2022-12-18T04:52:45;102920.31;;;-3.93;100.00
61678;BME280;47575;52.054;4.334;2022-12-18T04:55:12;102928.78;;;-3.94;100.00
61678;BME280;47575;52.054;4.334;2022-12-18T04:57:39;102922.94;;;-3.92;100.00
61678;BME280;47575;52.054;4.334;2022-12-18T05:00:07;102928.56;;;-3.97;100.00
61678;BME280;47575;52.054;4.334;2022-12-18T05:02:35;102914.03;;;-3.98;100.00
61678;BME280;47575;52.054;4.334;2022-12-18T05:05:02;102923.38;;;-3.99;100.00
61678;BME280;47575;52.054;4.334;2022-12-18T05:07:29;102925.00;;;-4.14;100.00
61678;BME280;47575;52.054;4.334;2022-12-18T05:09:56;102914.06;;;-4.11;100.00
61678;BME280;47575;52.054;4.334;2022-12-18T05:12:23;102914.94;;;-4.11;100.00
61678;BME280;47575;52.054;4.334;2022-12-18T05:14:50;102915.81;;;-4.10;100.00
61678;BME280;47575;52.054;4.334;2022-12-18T05:17:17;102909.78;;;-4.26;100.00
61678;BME280;47575;52.054;4.334;2022-12-18T05:19:45;102910.97;;;-4.34;100.00
61678;BME280;47575;52.054;4.334;2022-12-18T05:22:12;102906.25;;;-4.28;100.00
61678;BME280;47575;52.054;4.334;2022-12-18T05:24:39;102909.06;;;-4.51;100.00
61678;BME280;47575;52.054;4.334;2022-12-18T05:27:06;102897.22;;;-4.36;100.00
61678;BME280;47575;52.054;4.334;2022-12-18T05:29:33;102906.25;;;-4.28;100.00
61678;BME280;47575;52.054;4.334;2022-12-18T05:32:00;102892.69;;;-4.27;100.00
61678;BME280;47575;52.054;4.334;2022-12-18T05:34:27;102894.91;;;-4.18;100.00
61678;BME280;47575;52.054;4.334;2022-12-18T05:36:55;102889.13;;;-4.15;100.00
61678;BME280;47575;52.054;4.334;2022-12-18T05:39:22;102894.28;;;-4.29;100.00
61678;BME280;47575;52.054;4.334;2022-12-18T05:41:49;102892.22;;;-4.34;100.00
61678;BME280;47575;52.054;4.334;2022-12-18T05:44:16;102890.03;;;-4.28;100.00
61678;BME280;47575;52.054;4.334;2022-12-18T05:46:43;102889.31;;;-4.26;100.00
61678;BME280;47575;52.054;4.334;2022-12-18T05:49:10;102878.63;;;-4.33;100.00
61678;BME280;47575;52.054;4.334;2022-12-18T05:51:37;102886.41;;;-4.32;100.00
61678;BME280;47575;52.054;4.334;2022-12-18T05:54:05;102887.00;;;-4.36;100.00
61678;BME280;47575;52.054;4.334;2022-12-18T05:56:33;102878.56;;;-4.35;100.00
61678;BME280;47575;52.054;4.334;2022-12-18T05:59:00;102878.03;;;-4.29;100.00
61678;BME280;47575;52.054;4.334;2022-12-18T06:01:27;102881.00;;;-4.36;100.00
61678;BME280;47575;52.054;4.334;2022-12-18T06:03:54;102878.88;;;-4.43;100.00
61678;BME280;47575;52.054;4.334;2022-12-18T06:06:22;102870.63;;;-4.39;100.00
61678;BME280;47575;52.054;4.334;2022-12-18T06:08:49;102866.81;;;-4.46;100.00
61678;BME280;47575;52.054;4.334;2022-12-18T06:11:18;102866.22;;;-4.55;100.00
61678;BME280;47575;52.054;4.334;2022-12-18T06:13:46;102850.69;;;-4.58;100.00
61678;BME280;47575;52.054;4.334;2022-12-18T06:16:13;102841.66;;;-4.53;100.00
61678;BME280;47575;52.054;4.334;2022-12-18T06:18:40;102845.88;;;-4.54;100.00
61678;BME280;47575;52.054;4.334;2022-12-18T06:21:07;102852.56;;;-4.56;100.00
61678;BME280;47575;52.054;4.334;2022-12-18T06:23:34;102850.22;;;-4.66;100.00
61678;BME280;47575;52.054;4.334;2022-12-18T06:26:03;102837.03;;;-4.59;100.00
61678;BME280;47575;52.054;4.334;2022-12-18T06:28:32;102830.66;;;-4.65;100.00
61678;BME280;47575;52.054;4.334;2022-12-18T06:30:59;102820.63;;;-4.62;100.00
61678;BME280;47575;52.054;4.334;2022-12-18T06:33:26;102833.78;;;-4.56;100.00
61678;BME280;47575;52.054;4.334;2022-12-18T06:35:53;102825.72;;;-4.62;100.00
61678;BME280;47575;52.054;4.334;2022-12-18T06:38:20;102820.53;;;-4.64;100.00
61678;BME280;47575;52.054;4.334;2022-12-18T06:40:47;102820.84;;;-4.72;100.00
61678;BME280;47575;52.054;4.334;2022-12-18T06:43:14;102810.31;;;-4.64;100.00
61678;BME280;47575;52.054;4.334;2022-12-18T06:45:42;102805.69;;;-4.56;100.00
61678;BME280;47575;52.054;4.334;2022-12-18T06:48:09;102798.41;;;-4.63;100.00
61678;BME280;47575;52.054;4.334;2022-12-18T06:50:36;102789.19;;;-4.61;100.00
61678;BME280;47575;52.054;4.334;2022-12-18T06:53:03;102794.88;;;-4.52;100.00
61678;BME280;47575;52.054;4.334;2022-12-18T06:55:30;102788.66;;;-4.56;100.00
61678;BME280;47575;52.054;4.334;2022-12-18T06:57:57;102780.91;;;-4.57;100.00
61678;BME280;47575;52.054;4.334;2022-12-18T07:00:24;102773.16;;;-4.59;100.00
61678;BME280;47575;52.054;4.334;2022-12-18T07:02:53;102773.09;;;-4.60;100.00
61678;BME280;47575;52.054;4.334;2022-12-18T07:05:20;102776.63;;;-4.71;100.00
61678;BME280;47575;52.054;4.334;2022-12-18T07:07:46;102760.81;;;-4.66;100.00
61678;BME280;47575;52.054;4.334;2022-12-18T07:10:13;102762.47;;;-4.66;100.00
61678;BME280;47575;52.054;4.334;2022-12-18T07:12:40;102746.69;;;-4.74;100.00
61678;BME280;47575;52.054;4.334;2022-12-18T07:15:08;102730.94;;;-4.67;100.00
61678;BME280;47575;52.054;4.334;2022-12-18T07:17:35;102723.06;;;-4.70;100.00
61678;BME280;47575;52.054;4.334;2022-12-18T07:20:03;102712.78;;;-4.71;100.00
61678;BME280;47575;52.054;4.334;2022-12-18T07:22:30;102710.22;;;-4.71;100.00
61678;BME280;47575;52.054;4.334;2022-12-18T07:24:57;102700.00;;;-4.71;100.00
61678;BME280;47575;52.054;4.334;2022-12-18T07:27:24;102696.06;;;-4.66;100.00
61678;BME280;47575;52.054;4.334;2022-12-18T07:29:54;102698.31;;;-4.71;100.00
61678;BME280;47575;52.054;4.334;2022-12-18T07:32:21;102695.84;;;-4.69;100.00
61678;BME280;47575;52.054;4.334;2022-12-18T07:34:51;102693.13;;;-4.72;100.00
61678;BME280;47575;52.054;4.334;2022-12-18T07:37:19;102700.81;;;-4.58;100.00
61678;BME280;47575;52.054;4.334;2022-12-18T07:39:46;102689.00;;;-4.70;100.00
61678;BME280;47575;52.054;4.334;2022-12-18T07:42:15;102699.56;;;-4.64;100.00
61678;BME280;47575;52.054;4.334;2022-12-18T07:45:00;102695.72;;;-4.58;100.00
61678;BME280;47575;52.054;4.334;2022-12-18T07:47:28;102701.34;;;-4.63;100.00
61678;BME280;47575;52.054;4.334;2022-12-18T07:49:58;102690.31;;;-4.62;100.00
61678;BME280;47575;52.054;4.334;2022-12-18T07:52:26;102681.44;;;-4.69;100.00
61678;BME280;47575;52.054;4.334;2022-12-18T07:54:53;102671.31;;;-4.67;100.00
61678;BME280;47575;52.054;4.334;2022-12-18T07:57:20;102671.56;;;-4.63;100.00
61678;BME280;47575;52.054;4.334;2022-12-18T07:59:47;102670.69;;;-4.63;100.00
61678;BME280;47575;52.054;4.334;2022-12-18T08:02:14;102672.97;;;-4.68;100.00
61678;BME280;47575;52.054;4.334;2022-12-18T08:04:43;102664.69;;;-4.64;100.00
61678;BME280;47575;52.054;4.334;2022-12-18T08:07:10;102666.72;;;-4.58;100.00
61678;BME280;47575;52.054;4.334;2022-12-18T08:09:39;102657.09;;;-4.62;100.00
61678;BME280;47575;52.054;4.334;2022-12-18T08:12:07;102655.44;;;-4.62;100.00
61678;BME280;47575;52.054;4.334;2022-12-18T08:14:35;102656.94;;;-4.65;100.00
61678;BME280;47575;52.054;4.334;2022-12-18T08:17:02;102646.13;;;-4.61;100.00
61678;BME280;47575;52.054;4.334;2022-12-18T08:19:29;102647.88;;;-4.60;100.00
61678;BME280;47575;52.054;4.334;2022-12-18T08:21:56;102644.19;;;-4.51;100.00
61678;BME280;47575;52.054;4.334;2022-12-18T08:24:23;102641.03;;;-4.47;100.00
61678;BME280;47575;52.054;4.334;2022-12-18T08:26:51;102632.19;;;-4.37;100.00
61678;BME280;47575;52.054;4.334;2022-12-18T08:29:18;102634.56;;;-4.40;100.00
61678;BME280;47575;52.054;4.334;2022-12-18T08:31:45;102643.47;;;-4.33;100.00
61678;BME280;47575;52.054;4.334;2022-12-18T08:34:12;102649.22;;;-4.37;100.00
61678;BME280;47575;52.054;4.334;2022-12-18T08:36:40;102655.56;;;-4.46;100.00
61678;BME280;47575;52.054;4.334;2022-12-18T08:39:07;102657.84;;;-4.35;100.00
61678;BME280;47575;52.054;4.334;2022-12-18T08:41:34;102659.16;;;-4.12;100.00
61678;BME280;47575;52.054;4.334;2022-12-18T08:44:02;102673.78;;;-4.25;100.00
61678;BME280;47575;52.054;4.334;2022-12-18T08:46:47;102691.59;;;-4.11;100.00
61678;BME280;47575;52.054;4.334;2022-12-18T08:49:14;102684.28;;;-4.20;100.00
61678;BME280;47575;52.054;4.334;2022-12-18T08:51:41;102682.69;;;-4.03;100.00
61678;BME280;47575;52.054;4.334;2022-12-18T08:54:08;102677.84;;;-3.99;100.00
61678;BME280;47575;52.054;4.334;2022-12-18T08:56:37;102678.19;;;-4.07;100.00
61678;BME280;47575;52.054;4.334;2022-12-18T08:59:05;102669.00;;;-4.04;100.00
61678;BME280;47575;52.054;4.334;2022-12-18T09:01:32;102666.09;;;-4.10;100.00
61678;BME280;47575;52.054;4.334;2022-12-18T09:03:59;102656.31;;;-4.02;100.00
61678;BME280;47575;52.054;4.334;2022-12-18T09:06:26;102650.22;;;-4.04;100.00
61678;BME280;47575;52.054;4.334;2022-12-18T09:08:55;102638.06;;;-3.94;100.00
61678;BME280;47575;52.054;4.334;2022-12-18T09:11:22;102638.22;;;-3.91;100.00
61678;BME280;47575;52.054;4.334;2022-12-18T09:13:50;102624.09;;;-3.84;100.00
61678;BME280;47575;52.054;4.334;2022-12-18T09:16:19;102620.84;;;-3.65;100.00
61678;BME280;47575;52.054;4.334;2022-12-18T09:18:46;102618.88;;;-3.71;100.00
61678;BME280;47575;52.054;4.334;2022-12-18T09:21:14;102613.84;;;-3.53;100.00
61678;BME280;47575;52.054;4.334;2022-12-18T09:23:42;102607.59;;;-3.58;100.00
61678;BME280;47575;52.054;4.334;2022-12-18T09:26:09;102612.16;;;-3.52;100.00
61678;BME280;47575;52.054;4.334;2022-12-18T09:28:36;102594.44;;;-3.33;100.00
61678;BME280;47575;52.054;4.334;2022-12-18T09:31:04;102591.00;;;-3.50;100.00
61678;BME280;47575;52.054;4.334;2022-12-18T09:33:34;102599.63;;;-3.31;100.00
61678;BME280;47575;52.054;4.334;2022-12-18T09:36:01;102605.84;;;-3.43;100.00
61678;BME280;47575;52.054;4.334;2022-12-18T09:38:28;102601.22;;;-3.50;100.00
61678;BME280;47575;52.054;4.334;2022-12-18T09:40:57;102597.31;;;-3.27;100.00
61678;BME280;47575;52.054;4.334;2022-12-18T09:43:29;102613.97;;;-3.19;100.00
61678;BME280;47575;52.054;4.334;2022-12-18T09:46:01;102619.56;;;-3.26;100.00
61678;BME280;47575;52.054;4.334;2022-12-18T09:48:31;102615.00;;;-3.31;100.00
61678;BME280;47575;52.054;4.334;2022-12-18T09:51:02;102614.75;;;-3.20;100.00
61678;BME280;47575;52.054;4.334;2022-12-18T09:53:31;102613.16;;;-3.01;100.00
61678;BME280;47575;52.054;4.334;2022-12-18T09:55:59;102602.25;;;-3.14;100.00
61678;BME280;47575;52.054;4.334;2022-12-18T09:58:28;102603.06;;;-3.15;100.00
61678;BME280;47575;52.054;4.334;2022-12-18T10:00:57;102594.44;;;-3.17;100.00
61678;BME280;47575;52.054;4.334;2022-12-18T10:03:24;102594.88;;;-3.08;100.00
61678;BME280;47575;52.054;4.334;2022-12-18T10:05:54;102584.41;;;-2.96;100.00
61678;BME280;47575;52.054;4.334;2022-12-18T10:08:29;102587.44;;;-2.87;100.00
61678;BME280;47575;52.054;4.334;2022-12-18T10:11:01;102573.59;;;-2.90;100.00
61678;BME280;47575;52.054;4.334;2022-12-18T10:13:31;102574.69;;;-2.85;100.00
61678;BME280;47575;52.054;4.334;2022-12-18T10:16:03;102560.25;;;-2.83;100.00
61678;BME280;47575;52.054;4.334;2022-12-18T10:18:37;102556.94;;;-2.82;100.00
61678;BME280;47575;52.054;4.334;2022-12-18T10:21:09;102560.88;;;-2.71;100.00
61678;BME280;47575;52.054;4.334;2022-12-18T10:23:40;102557.13;;;-2.78;100.00
61678;BME280;47575;52.054;4.334;2022-12-18T10:26:10;102549.38;;;-2.61;100.00
61678;BME280;47575;52.054;4.334;2022-12-18T10:28:38;102540.31;;;-2.55;100.00
61678;BME280;47575;52.054;4.334;2022-12-18T10:31:06;102546.25;;;-2.56;100.00
61678;BME280;47575;52.054;4.334;2022-12-18T10:33:33;102538.19;;;-2.63;100.00
61678;BME280;47575;52.054;4.334;2022-12-18T10:36:00;102537.91;;;-2.52;100.00
61678;BME280;47575;52.054;4.334;2022-12-18T10:38:29;102546.50;;;-2.51;100.00
61678;BME280;47575;52.054;4.334;2022-12-18T10:40:58;102540.13;;;-2.59;100.00
61678;BME280;47575;52.054;4.334;2022-12-18T10:43:28;102548.75;;;-2.39;100.00
61678;BME280;47575;52.054;4.334;2022-12-18T10:45:58;102552.50;;;-2.33;100.00
61678;BME280;47575;52.054;4.334;2022-12-18T10:48:25;102542.16;;;-2.34;100.00
61678;BME280;47575;52.054;4.334;2022-12-18T10:50:53;102534.25;;;-2.39;100.00
61678;BME280;47575;52.054;4.334;2022-12-18T10:53:21;102537.63;;;-2.40;100.00
61678;BME280;47575;52.054;4.334;2022-12-18T10:55:49;102531.09;;;-2.33;100.00
61678;BME280;47575;52.054;4.334;2022-12-18T10:58:20;102539.91;;;-2.28;100.00
61678;BME280;47575;52.054;4.334;2022-12-18T11:01:01;102537.94;;;-2.16;100.00
61678;BME280;47575;52.054;4.334;2022-12-18T11:03:30;102527.28;;;-2.06;100.00
61678;BME280;47575;52.054;4.334;2022-12-18T11:06:01;102514.38;;;-2.07;100.00
61678;BME280;47575;52.054;4.334;2022-12-18T11:08:28;102511.00;;;-2.06;100.00
61678;BME280;47575;52.054;4.334;2022-12-18T11:10:55;102513.91;;;-1.99;100.00
61678;BME280;47575;52.054;4.334;2022-12-18T11:13:24;102506.41;;;-1.94;100.00
61678;BME280;47575;52.054;4.334;2022-12-18T11:15:52;102508.19;;;-1.74;100.00
61678;BME280;47575;52.054;4.334;2022-12-18T11:18:22;102511.34;;;-1.79;100.00
61678;BME280;47575;52.054;4.334;2022-12-18T11:20:55;102517.59;;;-1.74;100.00
61678;BME280;47575;52.054;4.334;2022-12-18T11:23:24;102503.63;;;-1.61;100.00
61678;BME280;47575;52.054;4.334;2022-12-18T11:25:56;102490.16;;;-1.75;100.00
61678;BME280;47575;52.054;4.334;2022-12-18T11:28:29;102482.00;;;-1.67;100.00
61678;BME280;47575;52.054;4.334;2022-12-18T11:33:54;102486.91;;;-1.90;100.00
61678;BME280;47575;52.054;4.334;2022-12-18T11:36:22;102477.06;;;-1.81;100.00
61678;BME280;47575;52.054;4.334;2022-12-18T11:38:50;102474.75;;;-1.75;100.00
61678;BME280;47575;52.054;4.334;2022-12-18T11:41:20;102464.06;;;-1.65;100.00
61678;BME280;47575;52.054;4.334;2022-12-18T11:43:50;102445.28;;;-1.64;100.00
61678;BME280;47575;52.054;4.334;2022-12-18T11:46:23;102437.13;;;-1.55;100.00
61678;BME280;47575;52.054;4.334;2022-12-18T11:48:54;102422.06;;;-1.48;100.00
61678;BME280;47575;52.054;4.334;2022-12-18T11:51:25;102414.59;;;-1.62;100.00
61678;BME280;47575;52.054;4.334;2022-12-18T11:53:54;102425.19;;;-1.74;100.00
61678;BME280;47575;52.054;4.334;2022-12-18T11:56:26;102426.00;;;-1.56;100.00
61678;BME280;47575;52.054;4.334;2022-12-18T11:58:57;102424.63;;;-1.67;100.00
61678;BME280;47575;52.054;4.334;2022-12-18T12:01:33;102410.91;;;-1.48;100.00
61678;BME280;47575;52.054;4.334;2022-12-18T12:04:09;102414.03;;;-1.55;100.00
61678;BME280;47575;52.054;4.334;2022-12-18T12:06:45;102412.59;;;-1.49;100.00
61678;BME280;47575;52.054;4.334;2022-12-18T12:09:15;102413.47;;;-1.48;100.00
61678;BME280;47575;52.054;4.334;2022-12-18T12:11:50;102403.63;;;-1.58;100.00
61678;BME280;47575;52.054;4.334;2022-12-18T12:14:25;102409.13;;;-1.49;100.00
61678;BME280;47575;52.054;4.334;2022-12-18T12:16:57;102406.75;;;-1.45;100.00
61678;BME280;47575;52.054;4.334;2022-12-18T12:19:29;102402.34;;;-1.49;100.00
61678;BME280;47575;52.054;4.334;2022-12-18T12:22:02;102395.81;;;-1.41;100.00
61678;BME280;47575;52.054;4.334;2022-12-18T12:24:35;102393.06;;;-1.45;100.00
61678;BME280;47575;52.054;4.334;2022-12-18T12:27:06;102392.31;;;-1.22;100.00
61678;BME280;47575;52.054;4.334;2022-12-18T12:29:42;102389.63;;;-1.25;100.00
61678;BME280;47575;52.054;4.334;2022-12-18T12:32:19;102386.84;;;-1.08;100.00
61678;BME280;47575;52.054;4.334;2022-12-18T12:34:54;102385.97;;;-1.30;100.00
61678;BME280;47575;52.054;4.334;2022-12-18T12:37:25;102387.06;;;-1.25;100.00
61678;BME280;47575;52.054;4.334;2022-12-18T12:39:56;102383.97;;;-1.16;100.00
61678;BME280;47575;52.054;4.334;2022-12-18T12:42:26;102382.72;;;-1.26;100.00
61678;BME280;47575;52.054;4.334;2022-12-18T12:45:16;102361.09;;;-1.31;100.00
61678;BME280;47575;52.054;4.334;2022-12-18T12:47:45;102364.91;;;-1.21;100.00
61678;BME280;47575;52.054;4.334;2022-12-18T12:50:13;102359.66;;;-1.24;100.00
61678;BME280;47575;52.054;4.334;2022-12-18T12:52:42;102350.31;;;-1.22;100.00
61678;BME280;47575;52.054;4.334;2022-12-18T12:55:13;102355.09;;;-1.10;100.00